sensor_id;sensor_type;location;lat;lon;timestamp;temperature;humidity
18163;DHT22;9206;50.994;4.538;2022-12-18T00:00:24;-6.80;99.90
18163;DHT22;9206;50.994;4.538;2022-12-18T00:03:18;-6.80;99.90
18163;DHT22;9206;50.994;4.538;2022-12-18T00:06:07;-6.90;99.90
18163;DHT22;9206;50.994;4.538;2022-12-18T00:08:58;-7.00;99.90
18163;DHT22;9206;50.994;4.538;2022-12-18T00:11:47;-7.00;99.90
18163;DHT22;9206;50.994;4.538;2022-12-18T00:14:37;-7.10;99.90
18163;DHT22;9206;50.994;4.538;2022-12-18T00:17:35;-7.10;99.90
18163;DHT22;9206;50.994;4.538;2022-12-18T00:20:30;-7.10;99.90
18163;DHT22;9206;50.994;4.538;2022-12-18T00:23:23;-7.10;99.90
18163;DHT22;9206;50.994;4.538;2022-12-18T00:26:15;-7.20;99.90
18163;DHT22;9206;50.994;4.538;2022-12-18T00:29:06;-7.30;99.90
18163;DHT22;9206;50.994;4.538;2022-12-18T00:31:59;-7.30;99.90
18163;DHT22;9206;50.994;4.538;2022-12-18T00:34:55;-7.40;99.90
18163;DHT22;9206;50.994;4.538;2022-12-18T00:37:47;-7.40;99.90
18163;DHT22;9206;50.994;4.538;2022-12-18T00:40:40;-7.40;99.90
18163;DHT22;9206;50.994;4.538;2022-12-18T00:43:27;-7.40;99.90
18163;DHT22;9206;50.994;4.538;2022-12-18T00:46:19;-7.40;99.90
18163;DHT22;9206;50.994;4.538;2022-12-18T00:49:07;-7.40;99.90
18163;DHT22;9206;50.994;4.538;2022-12-18T00:51:54;-7.50;99.90
18163;DHT22;9206;50.994;4.538;2022-12-18T00:54:43;-7.40;99.90
18163;DHT22;9206;50.994;4.538;2022-12-18T00:57:36;-7.50;99.90
18163;DHT22;9206;50.994;4.538;2022-12-18T01:00:29;-7.50;99.90
18163;DHT22;9206;50.994;4.538;2022-12-18T01:03:18;-7.60;99.90
18163;DHT22;9206;50.994;4.538;2022-12-18T01:06:06;-7.60;99.90
18163;DHT22;9206;50.994;4.538;2022-12-18T01:08:56;-7.50;99.90
18163;DHT22;9206;50.994;4.538;2022-12-18T01:11:48;-7.50;99.90
18163;DHT22;9206;50.994;4.538;2022-12-18T01:14:38;-7.50;99.90
18163;DHT22;9206;50.994;4.538;2022-12-18T01:17:27;-7.50;99.90
18163;DHT22;9206;50.994;4.538;2022-12-18T01:20:15;-7.60;99.90
18163;DHT22;9206;50.994;4.538;2022-12-18T01:23:02;-7.60;99.90
18163;DHT22;9206;50.994;4.538;2022-12-18T01:25:49;-7.60;99.90
18163;DHT22;9206;50.994;4.538;2022-12-18T01:28:40;-7.60;99.90
18163;DHT22;9206;50.994;4.538;2022-12-18T01:31:29;-7.60;99.90
18163;DHT22;9206;50.994;4.538;2022-12-18T01:34:32;-7.50;99.90
18163;DHT22;9206;50.994;4.538;2022-12-18T01:37:21;-7.50;99.90
18163;DHT22;9206;50.994;4.538;2022-12-18T01:40:10;-7.50;99.90
18163;DHT22;9206;50.994;4.538;2022-12-18T01:43:03;-7.50;99.90
18163;DHT22;9206;50.994;4.538;2022-12-18T01:45:55;-7.50;99.90
18163;DHT22;9206;50.994;4.538;2022-12-18T01:48:51;-7.50;99.90
18163;DHT22;9206;50.994;4.538;2022-12-18T01:51:39;-7.50;99.90
18163;DHT22;9206;50.994;4.538;2022-12-18T01:54:27;-7.60;99.90
18163;DHT22;9206;50.994;4.538;2022-12-18T01:57:22;-7.70;99.90
18163;DHT22;9206;50.994;4.538;2022-12-18T02:00:15;-7.70;99.90
18163;DHT22;9206;50.994;4.538;2022-12-18T02:03:04;-7.80;99.90
18163;DHT22;9206;50.994;4.538;2022-12-18T02:05:57;-7.90;99.90
18163;DHT22;9206;50.994;4.538;2022-12-18T02:08:57;-7.90;99.90
18163;DHT22;9206;50.994;4.538;2022-12-18T02:11:50;-8.00;99.90
18163;DHT22;9206;50.994;4.538;2022-12-18T02:14:45;-8.00;99.90
18163;DHT22;9206;50.994;4.538;2022-12-18T02:17:39;-8.10;99.90
18163;DHT22;9206;50.994;4.538;2022-12-18T02:20:35;-8.10;99.90
18163;DHT22;9206;50.994;4.538;2022-12-18T02:23:39;-8.20;99.90
18163;DHT22;9206;50.994;4.538;2022-12-18T02:26:34;-8.20;99.90
18163;DHT22;9206;50.994;4.538;2022-12-18T02:29:32;-8.20;99.90
18163;DHT22;9206;50.994;4.538;2022-12-18T02:32:29;-8.30;99.90
18163;DHT22;9206;50.994;4.538;2022-12-18T02:35:22;-8.30;99.90
18163;DHT22;9206;50.994;4.538;2022-12-18T02:38:17;-8.30;99.90
18163;DHT22;9206;50.994;4.538;2022-12-18T02:41:06;-8.30;99.90
18163;DHT22;9206;50.994;4.538;2022-12-18T02:44:00;-8.40;99.90
18163;DHT22;9206;50.994;4.538;2022-12-18T02:46:51;-8.40;99.90
18163;DHT22;9206;50.994;4.538;2022-12-18T02:49:50;-8.40;99.90
18163;DHT22;9206;50.994;4.538;2022-12-18T02:52:53;-8.40;99.90
18163;DHT22;9206;50.994;4.538;2022-12-18T02:55:50;-8.40;99.90
18163;DHT22;9206;50.994;4.538;2022-12-18T02:58:49;-8.40;99.90
18163;DHT22;9206;50.994;4.538;2022-12-18T03:01:51;-8.50;99.90
18163;DHT22;9206;50.994;4.538;2022-12-18T03:04:45;-8.60;99.90
18163;DHT22;9206;50.994;4.538;2022-12-18T03:07:45;-8.60;99.90
18163;DHT22;9206;50.994;4.538;2022-12-18T03:10:39;-8.60;99.90
18163;DHT22;9206;50.994;4.538;2022-12-18T03:13:31;-8.60;99.90
18163;DHT22;9206;50.994;4.538;2022-12-18T03:16:28;-8.60;99.90
18163;DHT22;9206;50.994;4.538;2022-12-18T03:19:19;-8.70;99.90
18163;DHT22;9206;50.994;4.538;2022-12-18T03:22:08;-8.60;99.90
18163;DHT22;9206;50.994;4.538;2022-12-18T03:25:02;-8.60;99.90
18163;DHT22;9206;50.994;4.538;2022-12-18T03:27:58;-8.60;99.90
18163;DHT22;9206;50.994;4.538;2022-12-18T03:30:49;-8.70;99.90
18163;DHT22;9206;50.994;4.538;2022-12-18T03:33:42;-8.70;99.90
18163;DHT22;9206;50.994;4.538;2022-12-18T03:36:33;-8.80;99.90
18163;DHT22;9206;50.994;4.538;2022-12-18T03:39:23;-8.90;99.90
18163;DHT22;9206;50.994;4.538;2022-12-18T03:42:21;-8.90;99.90
18163;DHT22;9206;50.994;4.538;2022-12-18T03:45:15;-9.00;99.90
18163;DHT22;9206;50.994;4.538;2022-12-18T03:48:07;-8.90;99.90
18163;DHT22;9206;50.994;4.538;2022-12-18T03:51:05;-8.90;99.90
18163;DHT22;9206;50.994;4.538;2022-12-18T03:54:04;-9.00;99.90
18163;DHT22;9206;50.994;4.538;2022-12-18T03:56:58;-9.00;99.90
18163;DHT22;9206;50.994;4.538;2022-12-18T03:59:51;-8.90;99.90
18163;DHT22;9206;50.994;4.538;2022-12-18T04:02:45;-8.90;99.90
18163;DHT22;9206;50.994;4.538;2022-12-18T04:05:43;-8.90;99.90
18163;DHT22;9206;50.994;4.538;2022-12-18T04:08:32;-8.90;99.90
18163;DHT22;9206;50.994;4.538;2022-12-18T04:11:24;-8.80;99.90
18163;DHT22;9206;50.994;4.538;2022-12-18T04:14:14;-8.80;99.90
18163;DHT22;9206;50.994;4.538;2022-12-18T04:17:04;-8.90;99.90
18163;DHT22;9206;50.994;4.538;2022-12-18T04:19:57;-9.00;99.90
18163;DHT22;9206;50.994;4.538;2022-12-18T04:22:51;-9.10;99.90
18163;DHT22;9206;50.994;4.538;2022-12-18T04:25:40;-9.10;99.90
18163;DHT22;9206;50.994;4.538;2022-12-18T04:28:29;-9.20;99.90
18163;DHT22;9206;50.994;4.538;2022-12-18T04:31:17;-9.20;99.90
18163;DHT22;9206;50.994;4.538;2022-12-18T04:34:08;-9.20;99.90
18163;DHT22;9206;50.994;4.538;2022-12-18T04:37:01;-9.30;99.90
18163;DHT22;9206;50.994;4.538;2022-12-18T04:39:49;-9.30;99.90
18163;DHT22;9206;50.994;4.538;2022-12-18T04:42:36;-9.30;99.90
18163;DHT22;9206;50.994;4.538;2022-12-18T04:45:28;-9.30;99.90
18163;DHT22;9206;50.994;4.538;2022-12-18T04:48:17;-9.30;99.90
18163;DHT22;9206;50.994;4.538;2022-12-18T04:51:09;-9.40;99.90
18163;DHT22;9206;50.994;4.538;2022-12-18T04:53:56;-9.40;99.90
18163;DHT22;9206;50.994;4.538;2022-12-18T04:56:47;-9.40;99.90
18163;DHT22;9206;50.994;4.538;2022-12-18T04:59:37;-9.40;99.90
18163;DHT22;9206;50.994;4.538;2022-12-18T05:02:27;-9.30;99.90
18163;DHT22;9206;50.994;4.538;2022-12-18T05:05:18;-9.30;99.90
18163;DHT22;9206;50.994;4.538;2022-12-18T05:08:08;-9.30;99.90
18163;DHT22;9206;50.994;4.538;2022-12-18T05:11:03;-9.10;99.90
18163;DHT22;9206;50.994;4.538;2022-12-18T05:13:51;-9.10;99.90
18163;DHT22;9206;50.994;4.538;2022-12-18T05:16:42;-9.10;99.90
18163;DHT22;9206;50.994;4.538;2022-12-18T05:19:31;-9.10;99.90
18163;DHT22;9206;50.994;4.538;2022-12-18T05:22:22;-9.20;99.90
18163;DHT22;9206;50.994;4.538;2022-12-18T05:25:10;-9.20;99.90
18163;DHT22;9206;50.994;4.538;2022-12-18T05:28:04;-9.20;99.90
18163;DHT22;9206;50.994;4.538;2022-12-18T05:30:54;-9.20;99.90
18163;DHT22;9206;50.994;4.538;2022-12-18T05:33:43;-9.20;99.90
18163;DHT22;9206;50.994;4.538;2022-12-18T05:36:33;-9.30;99.90
18163;DHT22;9206;50.994;4.538;2022-12-18T05:39:24;-9.30;99.90
18163;DHT22;9206;50.994;4.538;2022-12-18T05:42:15;-9.30;99.90
18163;DHT22;9206;50.994;4.538;2022-12-18T05:45:05;-9.30;99.90
18163;DHT22;9206;50.994;4.538;2022-12-18T05:47:58;-9.20;99.90
18163;DHT22;9206;50.994;4.538;2022-12-18T05:50:51;-9.20;99.90
18163;DHT22;9206;50.994;4.538;2022-12-18T05:53:46;-9.20;99.90
18163;DHT22;9206;50.994;4.538;2022-12-18T05:56:39;-9.20;99.90
18163;DHT22;9206;50.994;4.538;2022-12-18T05:59:30;-9.30;99.90
18163;DHT22;9206;50.994;4.538;2022-12-18T06:02:17;-9.30;99.90
18163;DHT22;9206;50.994;4.538;2022-12-18T06:05:08;-9.20;99.90
18163;DHT22;9206;50.994;4.538;2022-12-18T06:08:02;-9.20;99.90
18163;DHT22;9206;50.994;4.538;2022-12-18T06:10:54;-9.20;99.90
18163;DHT22;9206;50.994;4.538;2022-12-18T06:13:42;-9.20;99.90
18163;DHT22;9206;50.994;4.538;2022-12-18T06:16:32;-9.30;99.90
18163;DHT22;9206;50.994;4.538;2022-12-18T06:19:25;-9.20;99.90
18163;DHT22;9206;50.994;4.538;2022-12-18T06:22:15;-9.20;99.90
18163;DHT22;9206;50.994;4.538;2022-12-18T06:25:03;-9.20;99.90
18163;DHT22;9206;50.994;4.538;2022-12-18T06:27:54;-9.20;99.90
18163;DHT22;9206;50.994;4.538;2022-12-18T06:30:43;-9.20;99.90
18163;DHT22;9206;50.994;4.538;2022-12-18T06:33:31;-9.30;99.90
18163;DHT22;9206;50.994;4.538;2022-12-18T06:36:18;-9.30;99.90
18163;DHT22;9206;50.994;4.538;2022-12-18T06:39:07;-9.30;99.90
18163;DHT22;9206;50.994;4.538;2022-12-18T06:42:02;-9.30;99.90
18163;DHT22;9206;50.994;4.538;2022-12-18T06:44:54;-9.20;99.90
18163;DHT22;9206;50.994;4.538;2022-12-18T06:47:42;-9.20;99.90
18163;DHT22;9206;50.994;4.538;2022-12-18T06:50:29;-9.10;99.90
18163;DHT22;9206;50.994;4.538;2022-12-18T06:53:17;-9.10;99.90
18163;DHT22;9206;50.994;4.538;2022-12-18T06:56:06;-9.10;99.90
18163;DHT22;9206;50.994;4.538;2022-12-18T06:58:53;-9.10;99.90
18163;DHT22;9206;50.994;4.538;2022-12-18T07:01:52;-9.10;99.90
18163;DHT22;9206;50.994;4.538;2022-12-18T07:04:39;-9.20;99.90
18163;DHT22;9206;50.994;4.538;2022-12-18T07:07:27;-9.10;99.90
18163;DHT22;9206;50.994;4.538;2022-12-18T07:10:20;-9.00;99.90
18163;DHT22;9206;50.994;4.538;2022-12-18T07:13:07;-9.00;99.90
18163;DHT22;9206;50.994;4.538;2022-12-18T07:16:06;-9.00;99.90
18163;DHT22;9206;50.994;4.538;2022-12-18T07:18:56;-9.00;99.90
18163;DHT22;9206;50.994;4.538;2022-12-18T07:21:45;-9.00;99.90
18163;DHT22;9206;50.994;4.538;2022-12-18T07:24:35;-8.90;99.90
18163;DHT22;9206;50.994;4.538;2022-12-18T07:27:25;-8.80;99.90
18163;DHT22;9206;50.994;4.538;2022-12-18T07:30:13;-8.80;99.90
18163;DHT22;9206;50.994;4.538;2022-12-18T07:33:02;-8.80;99.90
18163;DHT22;9206;50.994;4.538;2022-12-18T07:35:54;-8.80;99.90
18163;DHT22;9206;50.994;4.538;2022-12-18T07:38:47;-8.90;99.90
18163;DHT22;9206;50.994;4.538;2022-12-18T07:41:37;-8.90;99.90
18163;DHT22;9206;50.994;4.538;2022-12-18T07:44:26;-8.80;99.90
18163;DHT22;9206;50.994;4.538;2022-12-18T07:47:19;-8.80;99.90
18163;DHT22;9206;50.994;4.538;2022-12-18T07:50:07;-8.80;99.90
18163;DHT22;9206;50.994;4.538;2022-12-18T07:52:56;-8.80;99.90
18163;DHT22;9206;50.994;4.538;2022-12-18T07:55:47;-8.80;99.90
18163;DHT22;9206;50.994;4.538;2022-12-18T07:58:35;-8.70;99.90
18163;DHT22;9206;50.994;4.538;2022-12-18T08:01:29;-8.70;99.90
18163;DHT22;9206;50.994;4.538;2022-12-18T08:04:16;-8.70;99.90
18163;DHT22;9206;50.994;4.538;2022-12-18T08:07:03;-8.60;99.90
18163;DHT22;9206;50.994;4.538;2022-12-18T08:09:52;-8.60;99.90
18163;DHT22;9206;50.994;4.538;2022-12-18T08:12:41;-8.50;99.90
18163;DHT22;9206;50.994;4.538;2022-12-18T08:15:28;-8.40;99.90
18163;DHT22;9206;50.994;4.538;2022-12-18T08:18:21;-8.30;99.90
18163;DHT22;9206;50.994;4.538;2022-12-18T08:21:16;-8.10;99.90
18163;DHT22;9206;50.994;4.538;2022-12-18T08:24:04;-7.80;99.90
18163;DHT22;9206;50.994;4.538;2022-12-18T08:26:59;-7.60;99.90
18163;DHT22;9206;50.994;4.538;2022-12-18T08:29:48;-7.40;99.90
18163;DHT22;9206;50.994;4.538;2022-12-18T08:32:51;-7.20;99.90
18163;DHT22;9206;50.994;4.538;2022-12-18T08:35:38;-7.00;99.90
18163;DHT22;9206;50.994;4.538;2022-12-18T08:38:26;-6.70;99.90
18163;DHT22;9206;50.994;4.538;2022-12-18T08:41:14;-6.50;99.90
18163;DHT22;9206;50.994;4.538;2022-12-18T08:44:06;-6.20;99.90
18163;DHT22;9206;50.994;4.538;2022-12-18T08:47:17;-6.10;99.90
18163;DHT22;9206;50.994;4.538;2022-12-18T08:50:06;-5.80;99.90
18163;DHT22;9206;50.994;4.538;2022-12-18T08:52:56;-5.60;99.90
18163;DHT22;9206;50.994;4.538;2022-12-18T08:55:45;-5.40;99.90
18163;DHT22;9206;50.994;4.538;2022-12-18T08:58:34;-5.30;99.90
18163;DHT22;9206;50.994;4.538;2022-12-18T09:01:23;-5.10;99.90
18163;DHT22;9206;50.994;4.538;2022-12-18T09:04:12;-4.90;99.90
18163;DHT22;9206;50.994;4.538;2022-12-18T09:07:00;-4.60;99.90
18163;DHT22;9206;50.994;4.538;2022-12-18T09:09:49;-4.20;99.90
18163;DHT22;9206;50.994;4.538;2022-12-18T09:12:36;-4.00;99.90
18163;DHT22;9206;50.994;4.538;2022-12-18T09:15:26;-3.80;99.90
18163;DHT22;9206;50.994;4.538;2022-12-18T09:18:17;-3.60;99.90
18163;DHT22;9206;50.994;4.538;2022-12-18T09:21:10;-3.40;99.90
18163;DHT22;9206;50.994;4.538;2022-12-18T09:23:59;-3.20;99.90
18163;DHT22;9206;50.994;4.538;2022-12-18T09:26:48;-3.00;99.90
18163;DHT22;9206;50.994;4.538;2022-12-18T09:29:40;-2.80;99.90
18163;DHT22;9206;50.994;4.538;2022-12-18T09:32:28;-2.80;99.90
18163;DHT22;9206;50.994;4.538;2022-12-18T09:35:19;-2.90;99.90
18163;DHT22;9206;50.994;4.538;2022-12-18T09:38:13;-3.10;99.90
18163;DHT22;9206;50.994;4.538;2022-12-18T09:41:05;-3.10;99.90
18163;DHT22;9206;50.994;4.538;2022-12-18T09:43:57;-3.20;99.90
18163;DHT22;9206;50.994;4.538;2022-12-18T09:49:58;-3.20;99.90
18163;DHT22;9206;50.994;4.538;2022-12-18T09:52:54;-3.20;99.90
18163;DHT22;9206;50.994;4.538;2022-12-18T09:55:45;-3.20;99.90
18163;DHT22;9206;50.994;4.538;2022-12-18T09:58:39;-3.20;99.90
18163;DHT22;9206;50.994;4.538;2022-12-18T10:01:35;-3.20;99.90
18163;DHT22;9206;50.994;4.538;2022-12-18T10:04:28;-3.20;99.90
18163;DHT22;9206;50.994;4.538;2022-12-18T10:07:21;-3.20;99.90
18163;DHT22;9206;50.994;4.538;2022-12-18T10:10:19;-3.20;99.90
18163;DHT22;9206;50.994;4.538;2022-12-18T10:13:20;-3.20;99.90
18163;DHT22;9206;50.994;4.538;2022-12-18T10:16:14;-3.20;99.90
18163;DHT22;9206;50.994;4.538;2022-12-18T10:19:21;-3.20;99.90
18163;DHT22;9206;50.994;4.538;2022-12-18T10:22:19;-3.20;99.90
18163;DHT22;9206;50.994;4.538;2022-12-18T10:25:19;-3.20;99.90
18163;DHT22;9206;50.994;4.538;2022-12-18T10:28:12;-3.20;99.90
18163;DHT22;9206;50.994;4.538;2022-12-18T10:31:00;-3.10;99.90
18163;DHT22;9206;50.994;4.538;2022-12-18T10:33:48;-3.10;99.90
18163;DHT22;9206;50.994;4.538;2022-12-18T10:36:36;-3.10;99.90
18163;DHT22;9206;50.994;4.538;2022-12-18T10:39:24;-3.10;99.90
18163;DHT22;9206;50.994;4.538;2022-12-18T10:42:18;-3.10;99.90
18163;DHT22;9206;50.994;4.538;2022-12-18T10:45:11;-3.00;99.90
18163;DHT22;9206;50.994;4.538;2022-12-18T10:47:59;-2.90;99.90
18163;DHT22;9206;50.994;4.538;2022-12-18T10:50:49;-2.90;99.90
18163;DHT22;9206;50.994;4.538;2022-12-18T10:53:40;-2.80;99.90
18163;DHT22;9206;50.994;4.538;2022-12-18T10:56:30;-2.70;99.90
18163;DHT22;9206;50.994;4.538;2022-12-18T10:59:19;-2.60;99.90
18163;DHT22;9206;50.994;4.538;2022-12-18T11:02:26;-2.50;99.90
18163;DHT22;9206;50.994;4.538;2022-12-18T11:05:26;-2.40;99.90
18163;DHT22;9206;50.994;4.538;2022-12-18T11:08:20;-2.30;99.90
18163;DHT22;9206;50.994;4.538;2022-12-18T11:11:19;-2.20;99.90
18163;DHT22;9206;50.994;4.538;2022-12-18T11:14:20;-2.00;99.90
18163;DHT22;9206;50.994;4.538;2022-12-18T11:17:18;-1.90;99.90
18163;DHT22;9206;50.994;4.538;2022-12-18T11:20:23;-1.90;99.90
18163;DHT22;9206;50.994;4.538;2022-12-18T11:23:13;-1.80;99.90
18163;DHT22;9206;50.994;4.538;2022-12-18T11:26:02;-1.70;99.90
18163;DHT22;9206;50.994;4.538;2022-12-18T11:28:51;-1.60;99.90
18163;DHT22;9206;50.994;4.538;2022-12-18T11:31:40;-1.60;99.90
18163;DHT22;9206;50.994;4.538;2022-12-18T11:34:29;-1.60;99.90
18163;DHT22;9206;50.994;4.538;2022-12-18T11:37:18;-1.50;99.90
18163;DHT22;9206;50.994;4.538;2022-12-18T11:40:10;-1.40;99.90
18163;DHT22;9206;50.994;4.538;2022-12-18T11:43:02;-1.50;99.90
18163;DHT22;9206;50.994;4.538;2022-12-18T11:45:56;-1.40;99.90
18163;DHT22;9206;50.994;4.538;2022-12-18T11:48:52;-1.40;99.90
18163;DHT22;9206;50.994;4.538;2022-12-18T11:51:48;-1.40;99.90
18163;DHT22;9206;50.994;4.538;2022-12-18T11:54:37;-1.40;99.90
18163;DHT22;9206;50.994;4.538;2022-12-18T11:57:31;-1.30;99.90
18163;DHT22;9206;50.994;4.538;2022-12-18T12:00:22;-1.30;99.90
18163;DHT22;9206;50.994;4.538;2022-12-18T12:03:42;-1.30;99.90
18163;DHT22;9206;50.994;4.538;2022-12-18T12:07:00;-1.20;99.90
18163;DHT22;9206;50.994;4.538;2022-12-18T12:09:57;-1.20;99.90
18163;DHT22;9206;50.994;4.538;2022-12-18T12:13:00;-1.10;99.90
18163;DHT22;9206;50.994;4.538;2022-12-18T12:16:01;-1.00;99.90
18163;DHT22;9206;50.994;4.538;2022-12-18T12:19:01;-1.00;99.90
18163;DHT22;9206;50.994;4.538;2022-12-18T12:21:54;-0.90;99.90
18163;DHT22;9206;50.994;4.538;2022-12-18T12:24:54;-0.90;99.90
18163;DHT22;9206;50.994;4.538;2022-12-18T12:27:52;-0.90;99.90
18163;DHT22;9206;50.994;4.538;2022-12-18T12:30:50;-0.90;99.90
18163;DHT22;9206;50.994;4.538;2022-12-18T12:33:46;-0.80;99.90
18163;DHT22;9206;50.994;4.538;2022-12-18T12:36:46;-0.80;99.90
18163;DHT22;9206;50.994;4.538;2022-12-18T12:39:40;-0.70;99.90
18163;DHT22;9206;50.994;4.538;2022-12-18T12:42:32;-0.70;99.90
18163;DHT22;9206;50.994;4.538;2022-12-18T12:45:42;-0.70;99.90
18163;DHT22;9206;50.994;4.538;2022-12-18T12:48:35;-0.60;99.90
18163;DHT22;9206;50.994;4.538;2022-12-18T12:51:27;-0.60;99.90
18163;DHT22;9206;50.994;4.538;2022-12-18T12:54:17;-0.50;99.90
18163;DHT22;9206;50.994;4.538;2022-12-18T12:57:12;-0.50;99.90
18163;DHT22;9206;50.994;4.538;2022-12-18T13:00:09;-0.40;99.90
18163;DHT22;9206;50.994;4.538;2022-12-18T13:03:07;-0.30;99.90
18163;DHT22;9206;50.994;4.538;2022-12-18T13:06:00;-0.30;99.90
18163;DHT22;9206;50.994;4.538;2022-12-18T13:08:55;-0.30;99.90
18163;DHT22;9206;50.994;4.538;2022-12-18T13:12:09;-0.30;99.90
18163;DHT22;9206;50.994;4.538;2022-12-18T13:15:21;-0.20;99.90
18163;DHT22;9206;50.994;4.538;2022-12-18T13:18:17;-0.20;99.90
18163;DHT22;9206;50.994;4.538;2022-12-18T13:21:23;-0.10;99.90
18163;DHT22;9206;50.994;4.538;2022-12-18T13:24:19;-0.10;99.90
18163;DHT22;9206;50.994;4.538;2022-12-18T13:30:53;0.00;99.90
18163;DHT22;9206;50.994;4.538;2022-12-18T13:33:47;0.00;99.90
18163;DHT22;9206;50.994;4.538;2022-12-18T13:36:34;0.00;99.90
18163;DHT22;9206;50.994;4.538;2022-12-18T13:39:32;-0.10;99.90
18163;DHT22;9206;50.994;4.538;2022-12-18T13:42:39;-0.10;99.90
18163;DHT22;9206;50.994;4.538;2022-12-18T13:45:47;-0.20;99.90
18163;DHT22;9206;50.994;4.538;2022-12-18T13:48:50;-0.20;99.90
18163;DHT22;9206;50.994;4.538;2022-12-18T13:51:47;-0.20;99.90
18163;DHT22;9206;50.994;4.538;2022-12-18T13:54:41;-0.20;99.90
18163;DHT22;9206;50.994;4.538;2022-12-18T13:57:31;-0.20;99.90
18163;DHT22;9206;50.994;4.538;2022-12-18T14:00:27;-0.30;99.90
18163;DHT22;9206;50.994;4.538;2022-12-18T14:03:25;-0.20;99.90
18163;DHT22;9206;50.994;4.538;2022-12-18T14:06:14;-0.20;99.90
18163;DHT22;9206;50.994;4.538;2022-12-18T14:09:03;-0.20;99.90
18163;DHT22;9206;50.994;4.538;2022-12-18T14:11:52;-0.10;99.90
18163;DHT22;9206;50.994;4.538;2022-12-18T14:15:00;-0.20;99.90
18163;DHT22;9206;50.994;4.538;2022-12-18T14:17:47;-0.10;99.90
18163;DHT22;9206;50.994;4.538;2022-12-18T14:20:37;-0.10;99.90
18163;DHT22;9206;50.994;4.538;2022-12-18T14:23:30;-0.10;99.90
18163;DHT22;9206;50.994;4.538;2022-12-18T14:26:25;-0.10;99.90
18163;DHT22;9206;50.994;4.538;2022-12-18T14:29:23;-0.10;99.90
18163;DHT22;9206;50.994;4.538;2022-12-18T14:32:12;-0.20;99.90
18163;DHT22;9206;50.994;4.538;2022-12-18T14:35:13;-0.20;99.90
18163;DHT22;9206;50.994;4.538;2022-12-18T14:38:26;-0.20;99.90
18163;DHT22;9206;50.994;4.538;2022-12-18T14:41:17;-0.20;99.90
18163;DHT22;9206;50.994;4.538;2022-12-18T14:44:07;-0.30;99.90
18163;DHT22;9206;50.994;4.538;2022-12-18T14:46:55;-0.40;99.90
18163;DHT22;9206;50.994;4.538;2022-12-18T14:49:43;-0.40;99.90
18163;DHT22;9206;50.994;4.538;2022-12-18T14:52:31;-0.50;99.90
18163;DHT22;9206;50.994;4.538;2022-12-18T14:55:20;-0.50;99.90
18163;DHT22;9206;50.994;4.538;2022-12-18T14:58:14;-0.50;99.90
18163;DHT22;9206;50.994;4.538;2022-12-18T15:01:02;-0.50;99.90
18163;DHT22;9206;50.994;4.538;2022-12-18T15:03:52;-0.60;99.90
18163;DHT22;9206;50.994;4.538;2022-12-18T15:06:39;-0.60;99.90
18163;DHT22;9206;50.994;4.538;2022-12-18T15:09:27;-0.60;99.90
18163;DHT22;9206;50.994;4.538;2022-12-18T15:12:26;-0.60;99.90
18163;DHT22;9206;50.994;4.538;2022-12-18T15:15:45;-0.60;99.90
18163;DHT22;9206;50.994;4.538;2022-12-18T15:18:35;-0.60;99.90
18163;DHT22;9206;50.994;4.538;2022-12-18T15:21:28;-0.50;99.90
18163;DHT22;9206;50.994;4.538;2022-12-18T15:24:18;-0.50;99.90
18163;DHT22;9206;50.994;4.538;2022-12-18T15:27:23;-0.50;99.90
18163;DHT22;9206;50.994;4.538;2022-12-18T15:30:19;-0.40;99.90
18163;DHT22;9206;50.994;4.538;2022-12-18T15:33:23;-0.40;99.90
18163;DHT22;9206;50.994;4.538;2022-12-18T15:36:13;-0.40;99.90
18163;DHT22;9206;50.994;4.538;2022-12-18T15:39:00;-0.40;99.90
18163;DHT22;9206;50.994;4.538;2022-12-18T15:41:49;-0.30;99.90
18163;DHT22;9206;50.994;4.538;2022-12-18T15:44:54;-0.40;99.90
18163;DHT22;9206;50.994;4.538;2022-12-18T15:47:41;-0.30;99.90
18163;DHT22;9206;50.994;4.538;2022-12-18T15:50:30;-0.40;99.90
18163;DHT22;9206;50.994;4.538;2022-12-18T15:53:17;-0.30;99.90
18163;DHT22;9206;50.994;4.538;2022-12-18T15:56:09;-0.30;99.90
18163;DHT22;9206;50.994;4.538;2022-12-18T15:59:16;-0.30;99.90
18163;DHT22;9206;50.994;4.538;2022-12-18T16:02:13;-0.30;99.90
18163;DHT22;9206;50.994;4.538;2022-12-18T16:05:02;-0.20;99.90
18163;DHT22;9206;50.994;4.538;2022-12-18T16:07:52;-0.20;99.90
18163;DHT22;9206;50.994;4.538;2022-12-18T16:10:39;-0.20;99.90
18163;DHT22;9206;50.994;4.538;2022-12-18T16:13:27;-0.10;99.90
18163;DHT22;9206;50.994;4.538;2022-12-18T16:16:14;-0.10;99.90
18163;DHT22;9206;50.994;4.538;2022-12-18T16:19:04;0.00;99.90
18163;DHT22;9206;50.994;4.538;2022-12-18T16:21:59;0.00;99.90
18163;DHT22;9206;50.994;4.538;2022-12-18T16:25:05;0.10;99.90
18163;DHT22;9206;50.994;4.538;2022-12-18T16:27:56;0.10;99.90
18163;DHT22;9206;50.994;4.538;2022-12-18T16:30:45;0.20;99.90
18163;DHT22;9206;50.994;4.538;2022-12-18T16:33:32;0.20;99.90
18163;DHT22;9206;50.994;4.538;2022-12-18T16:36:20;0.20;99.90
18163;DHT22;9206;50.994;4.538;2022-12-18T16:39:07;0.20;99.90
18163;DHT22;9206;50.994;4.538;2022-12-18T16:41:56;0.20;99.90
18163;DHT22;9206;50.994;4.538;2022-12-18T16:44:44;0.30;99.90
18163;DHT22;9206;50.994;4.538;2022-12-18T16:47:32;0.30;99.90
18163;DHT22;9206;50.994;4.538;2022-12-18T16:50:19;0.30;99.90
18163;DHT22;9206;50.994;4.538;2022-12-18T16:53:06;0.20;99.90
18163;DHT22;9206;50.994;4.538;2022-12-18T16:55:54;0.20;99.90
18163;DHT22;9206;50.994;4.538;2022-12-18T16:58:43;0.20;99.90
18163;DHT22;9206;50.994;4.538;2022-12-18T17:01:31;0.30;99.90
18163;DHT22;9206;50.994;4.538;2022-12-18T17:04:19;0.20;99.90
18163;DHT22;9206;50.994;4.538;2022-12-18T17:07:06;0.20;99.90
18163;DHT22;9206;50.994;4.538;2022-12-18T17:09:54;0.20;99.90
18163;DHT22;9206;50.994;4.538;2022-12-18T17:12:41;0.20;99.90
18163;DHT22;9206;50.994;4.538;2022-12-18T17:15:33;0.30;99.90
18163;DHT22;9206;50.994;4.538;2022-12-18T17:18:21;0.30;99.90
18163;DHT22;9206;50.994;4.538;2022-12-18T17:21:09;0.40;99.90
18163;DHT22;9206;50.994;4.538;2022-12-18T17:23:59;0.30;99.90
18163;DHT22;9206;50.994;4.538;2022-12-18T17:26:47;0.40;99.90
18163;DHT22;9206;50.994;4.538;2022-12-18T17:29:34;0.40;99.90
18163;DHT22;9206;50.994;4.538;2022-12-18T17:32:24;0.40;99.90
18163;DHT22;9206;50.994;4.538;2022-12-18T17:35:12;0.40;99.90
18163;DHT22;9206;50.994;4.538;2022-12-18T17:38:00;0.40;99.90
18163;DHT22;9206;50.994;4.538;2022-12-18T17:40:48;0.50;99.90
18163;DHT22;9206;50.994;4.538;2022-12-18T17:43:36;0.50;99.90
18163;DHT22;9206;50.994;4.538;2022-12-18T17:46:31;0.50;99.90
18163;DHT22;9206;50.994;4.538;2022-12-18T17:49:20;0.50;99.90
18163;DHT22;9206;50.994;4.538;2022-12-18T17:52:08;0.50;99.90
18163;DHT22;9206;50.994;4.538;2022-12-18T17:54:55;0.50;99.90
18163;DHT22;9206;50.994;4.538;2022-12-18T17:57:42;0.50;99.90
18163;DHT22;9206;50.994;4.538;2022-12-18T18:00:29;0.50;99.90
18163;DHT22;9206;50.994;4.538;2022-12-18T18:03:17;0.50;99.90
18163;DHT22;9206;50.994;4.538;2022-12-18T18:06:06;0.50;99.90
18163;DHT22;9206;50.994;4.538;2022-12-18T18:08:54;0.50;99.90
18163;DHT22;9206;50.994;4.538;2022-12-18T18:11:41;0.50;99.90
18163;DHT22;9206;50.994;4.538;2022-12-18T18:14:45;0.50;99.90
18163;DHT22;9206;50.994;4.538;2022-12-18T18:17:33;0.50;99.90
18163;DHT22;9206;50.994;4.538;2022-12-18T18:20:20;0.50;99.90
18163;DHT22;9206;50.994;4.538;2022-12-18T18:23:09;0.50;99.90
18163;DHT22;9206;50.994;4.538;2022-12-18T18:26:01;0.40;99.90
18163;DHT22;9206;50.994;4.538;2022-12-18T18:28:49;0.40;99.90
18163;DHT22;9206;50.994;4.538;2022-12-18T18:31:39;0.50;99.90
18163;DHT22;9206;50.994;4.538;2022-12-18T18:34:28;0.50;99.90